KAKH/AKH METAR and TAF weather

Enter ICAO airport designator
Station Type Date Time Source
KAKH METAR 2020/02/21 00:32 UTC NOAA

KAKH 210032Z AUTO 03009KT 3SM -SN BR OVC005 02/M01 A3030 RMK AO2 P0001 T00171006


Station Type Date Time Source
KAKH Decoded METAR 2020/02/21 00:32 UTC NOAA

GASTONIA MUNICIPAL AIRPORT, NC, United States (KAKH) 35-12N 81-09W 243M
Feb 20, 2020 - 07:32 PM EST / 2020.02.21 0032 UTC
Wind: from the NNE (030 degrees) at 10 MPH (9 KT):0
Visibility: 3 mile(s):0
Sky conditions: overcast
Weather: light snow; mist
Precipitation last hour: 0.01 inches
Temperature: 35.1 F (1.7 C)
Dew Point: 30.9 F (-0.6 C)
Relative Humidity: 84%
Pressure (altimeter): 30.3 in. Hg (1026 hPa)
ob: KAKH 210032Z AUTO 03009KT 3SM -SN BR OVC005 02/M01 A3030 RMK AO2 P0001 T00171006
cycle: 0

Station Type Date Time Source
KAKH TAF UTC NOAA

Error!

Example: see airport list